createdAt,value
2022-08-29T00:03:08.461Z,30.50
2022-08-29T00:08:11.834Z,29.05
2022-08-29T00:13:15.459Z,29.80
2022-08-29T00:18:20.620Z,29.67
2022-08-29T00:23:23.296Z,31.92
2022-08-29T00:28:25.919Z,32.75
2022-08-29T00:33:28.828Z,35.33
2022-08-29T00:38:31.629Z,34.65
2022-08-29T00:43:37.051Z,36.17
2022-08-29T00:48:41.325Z,36.17
2022-08-29T00:53:46.959Z,32.85
2022-08-29T00:59:01.261Z,34.47
2022-08-29T01:04:05.217Z,37.47
2022-08-29T01:09:12.753Z,36.03
2022-08-29T01:14:17.911Z,36.55
2022-08-29T01:19:27.928Z,33.88
2022-08-29T01:24:34.706Z,34.80
2022-08-29T01:29:37.366Z,35.58
2022-08-29T01:34:41.946Z,36.40
2022-08-29T01:39:45.849Z,34.50
2022-08-29T01:44:55.459Z,38.15
2022-08-29T01:49:58.909Z,37.10
2022-08-29T01:55:01.677Z,37.97
2022-08-29T02:00:08.521Z,35.47
2022-08-29T02:05:11.627Z,35.95
2022-08-29T02:10:14.304Z,33.35
2022-08-29T02:15:19.008Z,36.03
2022-08-29T02:20:21.683Z,40.20
2022-08-29T02:25:42.382Z,42.78
2022-08-29T02:30:49.916Z,45.42
2022-08-29T02:35:59.505Z,42.45
2022-08-29T02:41:03.104Z,39.95
2022-08-29T02:46:06.138Z,45.75
2022-08-29T02:51:08.953Z,46.35
2022-08-29T02:56:14.311Z,47.33
2022-08-29T03:01:20.661Z,42.70
2022-08-29T03:06:23.992Z,43.67
2022-08-29T03:11:28.635Z,41.47
2022-08-29T03:16:31.470Z,40.08
2022-08-29T03:21:34.164Z,38.53
2022-08-29T03:26:37.877Z,39.28
2022-08-29T03:31:40.575Z,35.90
2022-08-29T03:36:43.312Z,35.15
2022-08-29T03:41:46.163Z,32.65
2022-08-29T03:46:49.035Z,32.70
2022-08-29T03:51:52.058Z,29.38
2022-08-29T03:56:55.834Z,28.70
2022-08-29T04:01:58.785Z,29.45
2022-08-29T04:07:02.733Z,30.52
2022-08-29T04:12:05.578Z,27.02
2022-08-29T04:17:10.379Z,24.60
2022-08-29T04:22:13.863Z,24.42
2022-08-29T04:27:17.684Z,22.10
2022-08-29T04:32:20.719Z,22.17
2022-08-29T04:37:24.007Z,23.67
2022-08-29T04:42:26.712Z,22.70
2022-08-29T04:47:29.344Z,23.75
2022-08-29T04:52:32.578Z,25.60
2022-08-29T04:57:36.657Z,25.15
2022-08-29T05:02:40.519Z,24.88
2022-08-29T05:07:43.812Z,25.45
2022-08-29T05:12:46.882Z,26.90
2022-08-29T05:17:49.541Z,25.10
2022-08-29T05:22:52.457Z,24.88
2022-08-29T05:27:55.050Z,25.95
2022-08-29T05:32:58.810Z,26.80
2022-08-29T05:38:07.133Z,26.33
2022-08-29T05:43:12.301Z,23.95
2022-08-29T05:48:17.418Z,28.00
2022-08-29T05:53:20.327Z,28.00
2022-08-29T05:58:23.206Z,26.17
2022-08-29T06:03:25.955Z,28.42
2022-08-29T06:08:28.700Z,28.30
2022-08-29T06:13:31.462Z,27.35
2022-08-29T06:18:35.299Z,28.92
2022-08-29T06:23:40.676Z,30.17
2022-08-29T06:28:46.248Z,28.20
2022-08-29T06:33:53.800Z,29.02
2022-08-29T06:39:01.228Z,28.45
2022-08-29T06:44:04.710Z,29.17
2022-08-29T06:49:10.515Z,28.85
2022-08-29T06:54:13.845Z,28.77
2022-08-29T06:59:16.915Z,26.30
2022-08-29T07:04:20.654Z,25.27
2022-08-29T07:09:24.017Z,23.55
2022-08-29T07:14:26.693Z,24.85
2022-08-29T07:19:29.390Z,26.27
2022-08-29T07:24:32.633Z,25.63
2022-08-29T07:29:35.506Z,25.48
2022-08-29T07:34:38.173Z,25.08
2022-08-29T07:39:40.852Z,25.55
2022-08-29T07:44:43.559Z,27.70
2022-08-29T07:49:46.186Z,27.40
2022-08-29T07:54:48.964Z,24.73
2022-08-29T07:59:52.171Z,27.95
2022-08-29T08:04:54.812Z,26.13
2022-08-29T08:09:57.542Z,25.88
2022-08-29T08:15:00.958Z,25.73
2022-08-29T08:20:07.392Z,24.20
2022-08-29T08:25:10.134Z,25.30
2022-08-29T08:30:13.835Z,22.30
2022-08-29T08:35:16.748Z,19.23
2022-08-29T08:40:26.801Z,18.88
2022-08-29T08:45:42.962Z,14.97
2022-08-29T08:50:54.415Z,12.88
2022-08-29T08:56:00.140Z,11.75
2022-08-29T09:01:30.278Z,8.07
2022-08-29T09:06:51.474Z,5.50
2022-08-29T09:12:04.957Z,5.45
2022-08-29T09:17:13.729Z,4.45
2022-08-29T09:22:23.926Z,4.07
2022-08-29T09:27:29.409Z,4.85
2022-08-29T09:32:32.604Z,4.32
2022-08-29T09:37:35.521Z,4.68
2022-08-29T09:42:42.115Z,3.70
2022-08-29T09:47:45.584Z,4.97
2022-08-29T09:52:58.927Z,3.88
2022-08-29T09:58:08.750Z,4.50
2022-08-29T10:03:22.369Z,4.10
2022-08-29T10:08:36.338Z,6.35
2022-08-29T10:13:43.471Z,4.40
2022-08-29T10:19:02.949Z,5.35
2022-08-29T10:24:24.420Z,4.80
2022-08-29T10:29:40.321Z,4.78
2022-08-29T10:35:11.805Z,4.97
2022-08-29T10:40:25.607Z,5.18
2022-08-29T10:45:45.509Z,6.03
2022-08-29T10:50:57.299Z,5.60
2022-08-29T10:56:07.002Z,6.50
2022-08-29T11:01:33.348Z,5.28
2022-08-29T11:06:48.890Z,5.85
2022-08-29T11:12:18.083Z,4.85
2022-08-29T11:17:26.740Z,5.22
2022-08-29T11:22:41.294Z,4.40
2022-08-29T11:27:54.129Z,4.88
2022-08-29T11:33:12.652Z,4.53
2022-08-29T11:39:01.811Z,4.90
2022-08-29T11:44:30.672Z,4.40
2022-08-29T11:49:37.830Z,5.00
2022-08-29T11:54:43.509Z,4.32
2022-08-29T11:59:49.344Z,5.97
2022-08-29T12:05:00.944Z,5.50
2022-08-29T12:10:07.987Z,5.45
2022-08-29T12:15:50.351Z,4.60
2022-08-29T12:20:55.779Z,4.75
2022-08-29T12:26:21.941Z,5.68
2022-08-29T12:32:22.732Z,5.18
2022-08-29T12:37:41.380Z,4.22
2022-08-29T12:43:22.704Z,5.10
2022-08-29T12:48:53.415Z,4.60
2022-08-29T12:54:00.509Z,5.20
2022-08-29T12:59:05.106Z,4.93
2022-08-29T13:04:10.551Z,4.82
2022-08-29T13:09:17.688Z,4.75
2022-08-29T13:14:21.454Z,5.40
2022-08-29T13:19:25.013Z,4.88
2022-08-29T13:24:27.741Z,4.25
2022-08-29T13:29:42.749Z,4.88
2022-08-29T13:35:03.609Z,4.82
2022-08-29T13:40:41.982Z,5.03
2022-08-29T13:45:45.611Z,4.22
2022-08-29T13:50:48.343Z,4.45
2022-08-29T13:55:51.286Z,4.68
2022-08-29T14:00:55.002Z,3.90
2022-08-29T14:05:58.534Z,4.43
2022-08-29T14:11:01.349Z,4.10
2022-08-29T14:16:04.521Z,4.63
2022-08-29T14:21:07.441Z,3.42
2022-08-29T14:26:10.279Z,3.65
2022-08-29T14:31:13.053Z,4.28
2022-08-29T14:36:15.691Z,3.90
2022-08-29T14:41:19.482Z,3.13
2022-08-29T14:46:22.377Z,3.75
2022-08-29T14:51:25.605Z,4.00
2022-08-29T14:56:47.592Z,3.30
2022-08-29T15:01:54.519Z,4.30
2022-08-29T15:06:57.974Z,3.67
2022-08-29T15:12:00.756Z,3.85
2022-08-29T15:17:05.357Z,3.78
2022-08-29T15:22:08.325Z,4.68
2022-08-29T15:27:12.092Z,4.10
2022-08-29T15:32:15.094Z,4.88
2022-08-29T15:37:18.048Z,4.40
2022-08-29T15:42:24.289Z,4.35
2022-08-29T15:47:28.188Z,4.50
2022-08-29T15:52:31.260Z,4.10
2022-08-29T15:57:34.704Z,3.60
2022-08-29T16:02:54.884Z,3.72
2022-08-29T16:07:57.722Z,4.38
2022-08-29T16:13:00.754Z,3.90
2022-08-29T16:18:04.265Z,3.78
2022-08-29T16:23:07.408Z,3.80
2022-08-29T16:28:10.346Z,4.68
2022-08-29T16:33:13.295Z,5.32
2022-08-29T16:38:16.297Z,4.45
2022-08-29T16:43:19.393Z,4.10
2022-08-29T16:48:22.826Z,4.22
2022-08-29T16:53:26.056Z,3.92
2022-08-29T16:58:47.404Z,4.50
2022-08-29T17:03:50.134Z,4.72
2022-08-29T17:08:52.725Z,5.05
2022-08-29T17:13:56.160Z,4.28
2022-08-29T17:18:58.965Z,4.22
2022-08-29T17:24:02.486Z,4.50
2022-08-29T17:29:06.707Z,4.13
2022-08-29T17:34:09.814Z,4.40
2022-08-29T17:39:13.079Z,4.32
2022-08-29T17:44:15.902Z,4.13
2022-08-29T17:49:18.608Z,4.22
2022-08-29T17:54:23.298Z,3.72
2022-08-29T17:59:31.428Z,4.53
2022-08-29T18:04:34.071Z,5.15
2022-08-29T18:09:36.867Z,4.35
2022-08-29T18:14:39.739Z,4.47
2022-08-29T18:19:42.416Z,4.70
2022-08-29T18:24:47.476Z,5.22
2022-08-29T18:29:50.136Z,5.30
2022-08-29T18:34:57.561Z,5.35
2022-08-29T18:40:05.509Z,4.95
2022-08-29T18:45:09.846Z,4.97
2022-08-29T18:50:30.959Z,5.40
2022-08-29T18:55:34.289Z,5.25
2022-08-29T19:00:38.064Z,5.82
2022-08-29T19:05:47.863Z,4.93
2022-08-29T19:10:55.470Z,5.38
2022-08-29T19:15:59.896Z,5.40
2022-08-29T19:21:03.329Z,5.75
2022-08-29T19:26:09.359Z,5.13
2022-08-29T19:31:14.517Z,5.05
2022-08-29T19:36:19.060Z,5.72
2022-08-29T19:41:22.310Z,6.13
2022-08-29T19:46:25.100Z,5.55
2022-08-29T19:51:32.709Z,5.80
2022-08-29T19:56:35.690Z,5.68
2022-08-29T20:01:40.486Z,6.10
2022-08-29T20:06:44.002Z,5.72
2022-08-29T20:11:48.043Z,5.57
2022-08-29T20:16:50.699Z,6.93
2022-08-29T20:21:53.374Z,6.03
2022-08-29T20:26:56.497Z,5.88
2022-08-29T20:32:02.078Z,6.05
2022-08-29T20:37:11.069Z,6.38
2022-08-29T20:42:16.292Z,6.20
2022-08-29T20:47:20.252Z,6.43
2022-08-29T20:52:24.888Z,6.57
2022-08-29T20:57:27.803Z,5.80
2022-08-29T21:02:48.906Z,6.35
2022-08-29T21:07:51.608Z,6.20
2022-08-29T21:12:54.394Z,5.70
2022-08-29T21:17:57.366Z,7.03
2022-08-29T21:23:03.054Z,6.78
2022-08-29T21:28:07.159Z,7.32
2022-08-29T21:33:10.496Z,7.60
2022-08-29T21:38:13.474Z,7.60
2022-08-29T21:43:16.374Z,6.68
2022-08-29T21:48:19.249Z,7.35
2022-08-29T21:53:22.891Z,7.50
2022-08-29T21:58:25.661Z,7.57
2022-08-29T22:03:28.366Z,7.25
2022-08-29T22:08:32.333Z,6.72
2022-08-29T22:13:34.941Z,7.72
2022-08-29T22:18:37.622Z,7.63
2022-08-29T22:23:40.306Z,7.38
2022-08-29T22:28:45.282Z,7.50
2022-08-29T22:33:48.469Z,9.10
2022-08-29T22:38:56.613Z,7.57
2022-08-29T22:49:25.498Z,7.85
2022-08-29T22:54:35.865Z,7.35
2022-08-29T22:59:39.427Z,7.50
2022-08-29T23:04:42.294Z,7.55
2022-08-29T23:09:45.573Z,7.60
2022-08-29T23:14:48.387Z,7.30
2022-08-29T23:19:51.149Z,7.90
2022-08-29T23:24:58.543Z,8.27
2022-08-29T23:30:02.080Z,8.88
2022-08-29T23:35:07.401Z,7.88
2022-08-29T23:40:10.370Z,8.32
2022-08-29T23:45:13.342Z,8.80
2022-08-29T23:50:16.493Z,8.75
2022-08-29T23:55:19.222Z,7.80
